createdAt,value
2023-05-21T00:00:02.144Z,12
2023-05-21T00:02:14.166Z,11.9
2023-05-21T00:04:21.816Z,11.9
2023-05-21T00:06:29.675Z,12
2023-05-21T00:08:37.276Z,11.9
2023-05-21T00:10:44.747Z,11.9
2023-05-21T00:12:52.224Z,11.9
2023-05-21T00:15:02.588Z,11.9
2023-05-21T00:17:10.159Z,11.8
2023-05-21T00:19:18.344Z,11.8
2023-05-21T00:21:26.478Z,11.7
2023-05-21T00:23:36.179Z,11.7
2023-05-21T00:25:43.702Z,11.8
2023-05-21T00:27:51.291Z,11.8
2023-05-21T00:29:58.801Z,11.7
2023-05-21T00:32:08.333Z,11.7
2023-05-21T00:34:15.991Z,11.7
2023-05-21T00:36:24.152Z,11.7
2023-05-21T00:38:32.788Z,11.7
2023-05-21T00:40:41.002Z,11.7
2023-05-21T00:42:49.594Z,11.7
2023-05-21T00:44:57.394Z,11.7
2023-05-21T00:47:06.148Z,11.7
2023-05-21T00:49:15.425Z,11.7
2023-05-21T00:51:23.119Z,11.7
2023-05-21T00:53:31.179Z,11.7
2023-05-21T00:55:39.260Z,11.7
2023-05-21T00:57:47.117Z,11.8
2023-05-21T00:59:55.163Z,11.8
2023-05-21T01:02:05.153Z,11.8
2023-05-21T01:04:14.399Z,11.8
2023-05-21T01:06:22.181Z,11.8
2023-05-21T01:08:30.642Z,11.8
2023-05-21T01:10:38.120Z,11.9
2023-05-21T01:12:47.426Z,11.9
2023-05-21T01:14:55.913Z,11.9
2023-05-21T01:17:05.903Z,11.9
2023-05-21T01:19:17.465Z,11.9
2023-05-21T01:21:28.098Z,11.9
2023-05-21T01:23:37.181Z,11.9
2023-05-21T01:25:44.744Z,11.9
2023-05-21T01:27:52.844Z,11.9
2023-05-21T01:30:00.716Z,11.9
2023-05-21T01:32:16.682Z,11.9
2023-05-21T01:34:28.191Z,11.9
2023-05-21T01:36:41.865Z,11.9
2023-05-21T01:38:56.284Z,11.9
2023-05-21T01:41:07.628Z,11.9
2023-05-21T01:43:16.138Z,11.8
2023-05-21T01:45:26.861Z,11.8
2023-05-21T01:47:37.500Z,11.8
2023-05-21T01:49:45.383Z,11.8
2023-05-21T01:51:53.137Z,11.7
2023-05-21T01:54:02.479Z,11.7
2023-05-21T01:56:10.940Z,11.7
2023-05-21T01:58:20.780Z,11.6
2023-05-21T02:00:29.103Z,11.6
2023-05-21T02:02:36.638Z,11.7
2023-05-21T02:04:45.755Z,11.6
2023-05-21T02:06:54.438Z,11.6
2023-05-21T02:09:04.413Z,11.6
2023-05-21T02:11:11.997Z,11.6
2023-05-21T02:13:20.247Z,11.6
2023-05-21T02:15:28.017Z,11.6
2023-05-21T02:17:35.829Z,11.6
2023-05-21T02:19:44.472Z,11.6
2023-05-21T02:21:53.077Z,11.6
2023-05-21T02:24:00.754Z,11.6
2023-05-21T02:26:10.091Z,11.6
2023-05-21T02:28:17.641Z,11.6
2023-05-21T02:30:26.492Z,11.5
2023-05-21T02:32:34.630Z,11.5
2023-05-21T02:34:43.960Z,11.5
2023-05-21T02:36:52.720Z,11.5
2023-05-21T02:39:01.658Z,11.5
2023-05-21T02:41:11.674Z,11.5
2023-05-21T02:45:26.296Z,11.5
2023-05-21T02:47:33.829Z,11.5
2023-05-21T02:49:41.480Z,11.5
2023-05-21T02:51:49.285Z,11.5
2023-05-21T02:53:56.974Z,11.4
2023-05-21T02:56:05.950Z,11.5
2023-05-21T02:58:15.448Z,11.4
2023-05-21T03:00:23.078Z,11.4
2023-05-21T03:02:32.091Z,11.4
2023-05-21T03:04:45.788Z,11.4
2023-05-21T03:06:54.962Z,11.4
2023-05-21T03:09:02.642Z,11.4
2023-05-21T03:11:10.475Z,11.4
2023-05-21T03:13:19.372Z,11.4
2023-05-21T03:15:27.253Z,11.4
2023-05-21T03:17:35.576Z,11.4
2023-05-21T03:19:43.546Z,11.4
2023-05-21T03:21:51.169Z,11.4
2023-05-21T03:23:59.296Z,11.4
2023-05-21T03:26:07.156Z,11.4
2023-05-21T03:28:14.655Z,11.4
2023-05-21T03:30:23.662Z,11.4
2023-05-21T03:32:33.440Z,11.4
2023-05-21T03:34:40.958Z,11.4
2023-05-21T03:36:48.655Z,11.4
2023-05-21T03:38:56.120Z,11.4
2023-05-21T03:41:03.736Z,11.4
2023-05-21T03:43:11.433Z,11.4
2023-05-21T03:45:19.011Z,11.4
2023-05-21T03:47:27.895Z,11.4
2023-05-21T03:49:35.508Z,11.4
2023-05-21T03:51:43.099Z,11.4
2023-05-21T03:53:50.768Z,11.4
2023-05-21T03:55:58.338Z,11.5
2023-05-21T03:58:05.883Z,11.5
2023-05-21T04:00:14.891Z,11.5
2023-05-21T04:02:22.664Z,11.6
2023-05-21T04:04:33.385Z,11.6
2023-05-21T04:06:44.089Z,11.6
2023-05-21T04:08:52.019Z,11.7
2023-05-21T04:10:59.603Z,11.7
2023-05-21T04:13:07.218Z,11.7
2023-05-21T04:15:18.398Z,11.7
2023-05-21T04:17:26.496Z,11.7
2023-05-21T04:19:35.436Z,11.8
2023-05-21T04:21:44.828Z,11.8
2023-05-21T04:23:53.584Z,11.8
2023-05-21T04:26:01.415Z,11.8
2023-05-21T04:28:09.047Z,11.9
2023-05-21T04:30:16.978Z,11.9
2023-05-21T04:32:25.170Z,11.9
2023-05-21T04:34:33.696Z,12
2023-05-21T04:36:43.505Z,12
2023-05-21T04:38:51.024Z,12.1
2023-05-21T04:41:03.448Z,12.1
2023-05-21T04:43:11.046Z,12.2
2023-05-21T04:45:18.754Z,12.3
2023-05-21T04:47:26.312Z,12.3
2023-05-21T04:49:34.716Z,12.4
2023-05-21T04:51:43.567Z,12.5
2023-05-21T04:53:51.677Z,12.5
2023-05-21T04:55:59.489Z,12.6
2023-05-21T04:58:07.211Z,12.7
2023-05-21T05:00:16.144Z,12.8
2023-05-21T05:02:23.690Z,12.9
2023-05-21T05:04:31.932Z,13
2023-05-21T05:06:39.429Z,13
2023-05-21T05:08:48.424Z,13.1
2023-05-21T05:10:55.930Z,13
2023-05-21T05:13:03.476Z,13
2023-05-21T05:15:11.565Z,13.1
2023-05-21T05:17:19.485Z,13.2
2023-05-21T05:19:27.084Z,13.2
2023-05-21T05:21:34.721Z,13.3
2023-05-21T05:23:42.190Z,13.3
2023-05-21T05:25:51.251Z,13.4
2023-05-21T05:27:58.808Z,13.6
2023-05-21T05:30:07.679Z,13.7
2023-05-21T05:32:15.461Z,13.9
2023-05-21T05:34:22.931Z,14
2023-05-21T05:36:31.118Z,14
2023-05-21T05:38:38.613Z,14.1
2023-05-21T05:40:46.161Z,14.1
2023-05-21T05:42:55.238Z,14.3
2023-05-21T05:45:03.230Z,14.3
2023-05-21T05:47:10.773Z,14.3
2023-05-21T05:49:18.486Z,14.4
2023-05-21T05:51:25.963Z,14.5
2023-05-21T05:53:33.469Z,14.5
2023-05-21T05:55:41.533Z,14.5
2023-05-21T05:57:49.121Z,14.6
2023-05-21T05:59:58.001Z,14.7
2023-05-21T06:02:05.791Z,14.7
2023-05-21T06:04:13.408Z,14.7
2023-05-21T06:06:20.865Z,14.8
2023-05-21T06:08:29.386Z,14.9
2023-05-21T06:10:36.925Z,15
2023-05-21T06:12:44.642Z,15
2023-05-21T06:14:52.305Z,15.1
2023-05-21T06:17:02.286Z,15.2
2023-05-21T06:19:09.862Z,15.3
2023-05-21T06:21:17.596Z,15.4
2023-05-21T06:23:25.102Z,15.7
2023-05-21T06:25:32.621Z,15.9
2023-05-21T06:27:40.234Z,16
2023-05-21T06:29:47.807Z,16.1
2023-05-21T06:31:55.644Z,16.3
2023-05-21T06:34:04.602Z,16.6
2023-05-21T06:36:12.700Z,16.7
2023-05-21T06:38:20.563Z,16.8
2023-05-21T06:40:28.092Z,17
2023-05-21T06:42:35.703Z,17.2
2023-05-21T06:44:43.286Z,17.3
2023-05-21T06:46:50.887Z,17.4
2023-05-21T06:49:00.650Z,17.5
2023-05-21T06:51:09.767Z,17.6
2023-05-21T06:53:17.433Z,17.6
2023-05-21T06:55:25.516Z,17.7
2023-05-21T06:57:33.062Z,17.6
2023-05-21T06:59:40.687Z,17.6
2023-05-21T07:01:48.547Z,17.7
2023-05-21T07:03:56.222Z,17.7
2023-05-21T07:06:05.119Z,17.8
2023-05-21T07:08:14.814Z,17.9
2023-05-21T07:10:22.950Z,18
2023-05-21T07:12:30.642Z,18
2023-05-21T07:14:38.404Z,18.1
2023-05-21T07:16:46.164Z,18.2
2023-05-21T07:18:53.676Z,18.3
2023-05-21T07:21:01.534Z,18.4
2023-05-21T07:23:09.563Z,18.3
2023-05-21T07:25:18.707Z,18.4
2023-05-21T07:27:26.503Z,18.5
2023-05-21T07:29:34.296Z,18.6
2023-05-21T07:31:42.053Z,18.6
2023-05-21T07:33:49.589Z,18.7
2023-05-21T07:35:57.355Z,18.8
2023-05-21T07:38:05.855Z,18.9
2023-05-21T07:40:14.383Z,19
2023-05-21T07:42:23.700Z,19.1
2023-05-21T07:44:31.560Z,19.2
2023-05-21T07:46:40.941Z,19.3
2023-05-21T07:48:49.662Z,19.3
2023-05-21T07:50:59.887Z,19.3
2023-05-21T07:53:07.790Z,19.3
2023-05-21T07:55:15.561Z,19.2
2023-05-21T07:57:24.562Z,19.2
2023-05-21T07:59:33.269Z,19.2
2023-05-21T08:01:40.778Z,19.2
2023-05-21T08:03:48.420Z,19.2
2023-05-21T08:05:56.366Z,19.2
2023-05-21T08:08:05.273Z,19.3
2023-05-21T08:10:12.997Z,19.3
2023-05-21T08:12:22.223Z,19.2
2023-05-21T08:14:31.083Z,19.3
2023-05-21T08:16:39.319Z,19.4
2023-05-21T08:18:48.388Z,19.5
2023-05-21T08:20:56.717Z,19.7
2023-05-21T08:23:04.977Z,19.7
2023-05-21T08:25:12.668Z,19.7
2023-05-21T08:27:20.941Z,19.7
2023-05-21T08:29:28.744Z,19.8
2023-05-21T08:31:38.434Z,19.9
2023-05-21T08:33:51.661Z,20.1
2023-05-21T08:35:59.251Z,20.1
2023-05-21T08:38:06.807Z,20
2023-05-21T08:40:14.739Z,20.1
2023-05-21T08:42:36.813Z,20.1
2023-05-21T08:44:51.969Z,20.2
2023-05-21T08:47:05.476Z,20.2
2023-05-21T08:49:13.938Z,20.3
2023-05-21T08:51:22.249Z,20.5
2023-05-21T08:53:30.186Z,20.5
2023-05-21T08:55:39.509Z,20.5
2023-05-21T08:57:46.986Z,20.6
2023-05-21T08:59:55.170Z,20.7
2023-05-21T09:02:05.636Z,20.9
2023-05-21T09:04:20.643Z,20.9
2023-05-21T09:06:33.550Z,20.9
2023-05-21T09:08:45.573Z,20.9
2023-05-21T09:10:53.555Z,21.1
2023-05-21T09:13:01.824Z,21.3
2023-05-21T09:15:10.334Z,21.6
2023-05-21T09:17:19.935Z,21.9
2023-05-21T09:19:28.749Z,22.2
2023-05-21T09:21:36.493Z,22.4
2023-05-21T09:23:45.516Z,22.4
2023-05-21T09:25:53.026Z,22.4
2023-05-21T09:28:01.019Z,22.5
2023-05-21T09:30:11.630Z,22.4
2023-05-21T09:32:20.779Z,22.3
2023-05-21T09:34:29.155Z,22.2
2023-05-21T09:36:38.932Z,22.2
2023-05-21T09:38:46.704Z,22.2
2023-05-21T09:40:59.174Z,22.1
2023-05-21T09:43:06.670Z,22
2023-05-21T09:45:18.993Z,21.8
2023-05-21T09:47:28.767Z,21.7
2023-05-21T09:49:38.477Z,21.7
2023-05-21T09:51:46.150Z,21.7
2023-05-21T09:53:57.429Z,21.7
2023-05-21T09:56:05.959Z,21.7
2023-05-21T09:58:13.582Z,21.7
2023-05-21T10:00:22.770Z,21.8
2023-05-21T10:02:39.191Z,21.7
2023-05-21T10:04:49.854Z,21.6
2023-05-21T10:07:00.445Z,21.7
2023-05-21T10:09:10.657Z,21.6
2023-05-21T10:11:19.153Z,21.4
2023-05-21T10:13:27.442Z,21.4
2023-05-21T10:15:39.849Z,21.4
2023-05-21T10:17:50.516Z,21.5
2023-05-21T10:20:00.843Z,21.6
2023-05-21T10:22:10.375Z,21.7
2023-05-21T10:24:18.681Z,21.8
2023-05-21T10:26:26.516Z,21.9
2023-05-21T10:28:39.509Z,22
2023-05-21T10:30:47.553Z,22.1
2023-05-21T10:32:57.542Z,22.2
2023-05-21T10:35:06.373Z,22.4
2023-05-21T10:37:14.217Z,22.6
2023-05-21T10:39:24.998Z,22.6
2023-05-21T10:41:59.105Z,22.7
2023-05-21T10:44:18.490Z,22.8
2023-05-21T10:46:50.316Z,22.8
2023-05-21T10:49:17.059Z,22.8
2023-05-21T10:51:28.848Z,22.7
2023-05-21T10:53:50.635Z,22.7
2023-05-21T10:56:10.952Z,22.7
2023-05-21T10:58:42.869Z,22.6
2023-05-21T11:00:50.957Z,22.5
2023-05-21T11:02:59.778Z,22.5
2023-05-21T11:05:14.739Z,22.5
2023-05-21T11:07:24.579Z,22.5
2023-05-21T11:09:32.327Z,22.5
2023-05-21T11:11:45.697Z,22.5
2023-05-21T11:13:53.292Z,22.4
2023-05-21T11:16:08.616Z,22.5
2023-05-21T11:18:16.092Z,22.5
2023-05-21T11:20:35.297Z,22.5
2023-05-21T11:22:42.877Z,22.5
2023-05-21T11:24:51.603Z,22.5
2023-05-21T11:27:04.432Z,22.5
2023-05-21T11:29:12.261Z,22.5
2023-05-21T11:31:24.327Z,22.5
2023-05-21T11:33:31.906Z,22.6
2023-05-21T11:35:58.129Z,22.7
2023-05-21T11:38:10.106Z,22.9
2023-05-21T11:40:19.762Z,22.9
2023-05-21T11:42:32.585Z,23
2023-05-21T11:44:41.536Z,23.2
2023-05-21T11:46:49.740Z,23.3
2023-05-21T11:48:57.722Z,23.2
2023-05-21T11:51:08.317Z,23.3
2023-05-21T11:53:18.478Z,23.5
2023-05-21T11:55:26.489Z,23.6
2023-05-21T11:57:34.187Z,23.6
2023-05-21T11:59:42.329Z,23.6
2023-05-21T12:01:49.875Z,23.8
2023-05-21T12:03:57.616Z,23.9
2023-05-21T12:06:08.201Z,24.1
2023-05-21T12:08:25.053Z,24.1
2023-05-21T12:10:33.220Z,24
2023-05-21T12:12:53.727Z,24.2
2023-05-21T12:15:04.653Z,24.6
2023-05-21T12:17:13.616Z,24.8
2023-05-21T12:19:21.794Z,25
2023-05-21T12:21:31.182Z,25.2
2023-05-21T12:23:38.706Z,25.3
2023-05-21T12:25:46.217Z,25.4
2023-05-21T12:27:58.187Z,25.3
2023-05-21T12:30:08.100Z,25.4
2023-05-21T12:32:16.819Z,25.7
2023-05-21T12:34:44.290Z,25.7
2023-05-21T12:36:53.632Z,25.7
2023-05-21T12:39:01.635Z,25.6
2023-05-21T12:41:09.469Z,25.6
2023-05-21T12:43:16.993Z,25.6
2023-05-21T12:45:24.842Z,25.8
2023-05-21T12:47:33.090Z,25.9
2023-05-21T12:49:41.920Z,25.8
2023-05-21T12:51:50.067Z,25.8
2023-05-21T12:54:01.783Z,25.9
2023-05-21T12:56:10.855Z,25.7
2023-05-21T12:58:22.767Z,25.7
2023-05-21T13:00:30.494Z,25.7
2023-05-21T13:02:40.657Z,25.8
2023-05-21T13:04:49.054Z,26
2023-05-21T13:06:56.609Z,26
2023-05-21T13:09:05.574Z,26.1
2023-05-21T13:11:13.145Z,26.1
2023-05-21T13:13:20.589Z,26
2023-05-21T13:15:28.754Z,26.1
2023-05-21T13:17:36.304Z,26.3
2023-05-21T13:19:43.782Z,26.1
2023-05-21T13:21:51.265Z,26
2023-05-21T13:23:58.768Z,26
2023-05-21T13:26:07.664Z,26.1
2023-05-21T13:28:16.168Z,26.2
2023-05-21T13:30:23.701Z,26.2
2023-05-21T13:32:31.397Z,26.1
2023-05-21T13:34:39.008Z,26.1
2023-05-21T13:36:47.165Z,26.3
2023-05-21T13:38:56.069Z,26.4
2023-05-21T13:41:03.608Z,26.4
2023-05-21T13:43:12.537Z,26.4
2023-05-21T13:45:21.587Z,26.5
2023-05-21T13:47:29.174Z,26.5
2023-05-21T13:49:37.448Z,26.3
2023-05-21T13:51:45.005Z,26.2
2023-05-21T13:53:53.003Z,26.2
2023-05-21T13:56:02.806Z,26.2
2023-05-21T13:58:13.628Z,26.2
2023-05-21T14:00:21.311Z,26.1
2023-05-21T14:02:29.364Z,26
2023-05-21T14:04:39.070Z,25.9
2023-05-21T14:06:48.271Z,25.7
2023-05-21T14:08:55.784Z,25.5
2023-05-21T14:11:04.832Z,25.5
2023-05-21T14:13:19.391Z,25.4
2023-05-21T14:15:28.691Z,25.2
2023-05-21T14:17:36.404Z,24.8
2023-05-21T14:19:43.961Z,24.6
2023-05-21T14:21:53.031Z,24.3
2023-05-21T14:24:00.635Z,24
2023-05-21T14:26:13.602Z,24
2023-05-21T14:28:23.802Z,24.1
2023-05-21T14:30:31.506Z,24.3
2023-05-21T14:32:39.106Z,24.4
2023-05-21T14:34:46.769Z,24.4
2023-05-21T14:36:54.454Z,24.4
2023-05-21T14:39:02.644Z,24.5
2023-05-21T14:41:10.328Z,24.5
2023-05-21T14:43:18.045Z,24.5
2023-05-21T14:45:27.099Z,24.5
2023-05-21T14:47:34.713Z,24.5
2023-05-21T14:49:42.363Z,24.4
2023-05-21T14:51:49.888Z,24.3
2023-05-21T14:53:57.773Z,24.4
2023-05-21T14:56:05.768Z,24.5
2023-05-21T14:58:13.410Z,24.5
2023-05-21T15:00:21.189Z,24.6
2023-05-21T15:02:30.142Z,24.7
2023-05-21T15:04:37.795Z,24.8
2023-05-21T15:06:45.560Z,24.9
2023-05-21T15:08:53.294Z,24.7
2023-05-21T15:11:00.810Z,24.6
2023-05-21T15:13:08.288Z,24.6
2023-05-21T15:15:16.745Z,24.6
2023-05-21T15:17:24.479Z,24.6
2023-05-21T15:19:33.624Z,24.8
2023-05-21T15:23:56.659Z,24.8
2023-05-21T15:26:04.419Z,24.8
2023-05-21T15:28:12.700Z,24.8
2023-05-21T15:30:21.994Z,24.7
2023-05-21T15:32:29.738Z,24.5
2023-05-21T15:34:38.697Z,24.4
2023-05-21T15:36:46.286Z,24.4
2023-05-21T15:38:53.787Z,24.4
2023-05-21T15:41:01.314Z,24.4
2023-05-21T15:43:08.796Z,24.2
2023-05-21T15:45:17.064Z,24
2023-05-21T15:47:24.952Z,23.9
2023-05-21T15:49:32.884Z,23.7
2023-05-21T15:51:41.828Z,23.6
2023-05-21T15:53:49.406Z,23.5
2023-05-21T15:55:57.226Z,23.5
2023-05-21T15:58:05.110Z,23.5
2023-05-21T16:00:13.931Z,23.4
2023-05-21T16:02:21.490Z,23.2
2023-05-21T16:04:29.124Z,23
2023-05-21T16:06:36.698Z,22.9
2023-05-21T16:08:45.670Z,22.6
2023-05-21T16:10:53.947Z,22.4
2023-05-21T16:13:03.750Z,22.3
2023-05-21T16:15:12.155Z,22.2
2023-05-21T16:17:20.611Z,22.2
2023-05-21T16:19:28.280Z,22.2
2023-05-21T16:21:35.854Z,22.1
2023-05-21T16:23:44.773Z,22
2023-05-21T16:25:52.344Z,21.9
2023-05-21T16:27:59.969Z,21.8
2023-05-21T16:30:09.052Z,21.8
2023-05-21T16:32:16.636Z,21.7
2023-05-21T16:34:24.141Z,21.7
2023-05-21T16:36:31.779Z,21.7
2023-05-21T16:38:39.471Z,21.7
2023-05-21T16:40:51.952Z,21.6
2023-05-21T16:43:01.843Z,21.6
2023-05-21T16:45:12.960Z,21.6
2023-05-21T16:47:20.524Z,21.6
2023-05-21T16:49:28.356Z,21.6
2023-05-21T16:51:35.895Z,21.5
2023-05-21T16:53:43.415Z,21.5
2023-05-21T16:55:52.525Z,21.5
2023-05-21T16:58:01.407Z,21.4
2023-05-21T17:00:13.309Z,21.4
2023-05-21T17:02:21.595Z,21.3
2023-05-21T17:04:31.374Z,21.3
2023-05-21T17:06:39.357Z,21.3
2023-05-21T17:08:51.224Z,21.3
2023-05-21T17:11:04.259Z,21.2
2023-05-21T17:13:21.191Z,21.1
2023-05-21T17:15:33.151Z,21.1
2023-05-21T17:17:45.434Z,20.9
2023-05-21T17:19:53.134Z,20.9
2023-05-21T17:22:00.664Z,20.9
2023-05-21T17:24:08.164Z,20.8
2023-05-21T17:26:17.001Z,20.8
2023-05-21T17:28:24.753Z,20.7
2023-05-21T17:30:32.423Z,20.7
2023-05-21T17:32:39.997Z,20.6
2023-05-21T17:34:47.748Z,20.6
2023-05-21T17:36:55.406Z,20.6
2023-05-21T17:39:03.080Z,20.5
2023-05-21T17:41:10.783Z,20.4
2023-05-21T17:43:19.941Z,20.3
2023-05-21T17:45:27.499Z,20.2
2023-05-21T17:47:35.209Z,20.2
2023-05-21T17:49:42.732Z,20.1
2023-05-21T17:51:50.371Z,20.1
2023-05-21T17:53:57.998Z,20.1
2023-05-21T17:56:06.190Z,20
2023-05-21T17:58:13.773Z,20
2023-05-21T18:00:22.965Z,20
2023-05-21T18:02:30.504Z,20
2023-05-21T18:04:38.102Z,20
2023-05-21T18:06:45.837Z,19.9
2023-05-21T18:08:53.353Z,19.9
2023-05-21T18:11:01.510Z,19.9
2023-05-21T18:13:09.060Z,19.9
2023-05-21T18:15:17.131Z,19.9
2023-05-21T18:17:26.196Z,19.9
2023-05-21T18:19:33.780Z,19.9
2023-05-21T18:21:41.451Z,19.9
2023-05-21T18:23:48.937Z,19.9
2023-05-21T18:25:56.736Z,19.8
2023-05-21T18:28:07.081Z,19.9
2023-05-21T18:30:15.522Z,19.8
2023-05-21T18:32:23.549Z,19.8
2023-05-21T18:34:32.452Z,19.7
2023-05-21T18:36:40.414Z,19.7
2023-05-21T18:38:48.464Z,19.7
2023-05-21T18:40:55.989Z,19.7
2023-05-21T18:43:05.672Z,19.7
2023-05-21T18:45:14.109Z,19.7
2023-05-21T18:47:22.372Z,19.7
2023-05-21T18:49:33.684Z,19.7
2023-05-21T18:51:42.838Z,19.7
2023-05-21T18:53:50.333Z,19.7
2023-05-21T18:55:58.009Z,19.7
2023-05-21T18:58:05.540Z,19.6
2023-05-21T19:00:14.126Z,19.7
2023-05-21T19:02:22.095Z,19.7
2023-05-21T19:04:30.592Z,19.6
2023-05-21T19:06:38.111Z,19.6
2023-05-21T19:08:47.332Z,19.6
2023-05-21T19:10:55.321Z,19.4
2023-05-21T19:13:04.381Z,19.5
2023-05-21T19:15:15.225Z,19.4
2023-05-21T19:17:22.797Z,19.4
2023-05-21T19:19:30.521Z,19.3
2023-05-21T19:21:38.193Z,19.3
2023-05-21T19:23:52.976Z,19.3
2023-05-21T19:26:02.608Z,19.2
2023-05-21T19:28:10.440Z,19.3
2023-05-21T19:30:18.021Z,19.2
2023-05-21T19:32:25.707Z,19.2
2023-05-21T19:34:33.432Z,19.2
2023-05-21T19:36:48.814Z,19.2
2023-05-21T19:39:02.562Z,19.2
2023-05-21T19:41:10.088Z,19.2
2023-05-21T19:43:17.655Z,19.2
2023-05-21T19:45:25.484Z,19.2
2023-05-21T19:47:33.098Z,19.2
2023-05-21T19:49:40.599Z,19.1
2023-05-21T19:51:49.558Z,19
2023-05-21T19:53:57.599Z,19
2023-05-21T19:56:07.812Z,18.9
2023-05-21T19:58:18.842Z,18.9
2023-05-21T20:00:27.079Z,18.9
2023-05-21T20:02:34.803Z,18.9
2023-05-21T20:04:42.349Z,18.8
2023-05-21T20:06:49.888Z,18.8
2023-05-21T20:08:57.368Z,18.8
2023-05-21T20:11:06.176Z,18.8
2023-05-21T20:13:13.817Z,18.8
2023-05-21T20:15:21.477Z,18.7
2023-05-21T20:17:29.953Z,18.6
2023-05-21T20:19:38.221Z,18.6
2023-05-21T20:21:45.921Z,18.6
2023-05-21T20:23:54.076Z,18.6
2023-05-21T20:26:01.943Z,18.6
2023-05-21T20:28:10.869Z,18.6
2023-05-21T20:30:18.664Z,18.5
2023-05-21T20:32:26.463Z,18.5
2023-05-21T20:34:34.047Z,18.5
2023-05-21T20:36:41.750Z,18.4
2023-05-21T20:38:49.566Z,18.4
2023-05-21T20:40:57.282Z,18.3
2023-05-21T20:43:05.764Z,18.3
2023-05-21T20:45:15.562Z,18.3
2023-05-21T20:47:23.507Z,18.2
2023-05-21T20:49:32.854Z,18.2
2023-05-21T20:51:40.953Z,18.2
2023-05-21T20:53:48.512Z,18.2
2023-05-21T20:55:56.231Z,18.2
2023-05-21T20:58:04.673Z,18.2
2023-05-21T21:00:15.380Z,18.2
2023-05-21T21:02:25.073Z,18.2
2023-05-21T21:04:33.151Z,18.2
2023-05-21T21:06:40.704Z,18.3
2023-05-21T21:08:49.784Z,18.3
2023-05-21T21:10:57.788Z,18.3
2023-05-21T21:13:06.796Z,18.3
2023-05-21T21:15:14.649Z,18.3
2023-05-21T21:17:23.865Z,18.3
2023-05-21T21:19:31.581Z,18.3
2023-05-21T21:21:39.147Z,18.3
2023-05-21T21:23:46.737Z,18.3
2023-05-21T21:25:54.256Z,18.2
2023-05-21T21:28:01.770Z,18.2
2023-05-21T21:30:10.215Z,18.2
2023-05-21T21:32:18.660Z,18.2
2023-05-21T21:34:27.705Z,18.2
2023-05-21T21:36:35.220Z,18.2
2023-05-21T21:38:42.638Z,18.2
2023-05-21T21:40:50.365Z,18.2
2023-05-21T21:42:57.922Z,18.1
2023-05-21T21:45:08.292Z,18.1
2023-05-21T21:47:15.856Z,18.1
2023-05-21T21:49:23.381Z,18
2023-05-21T21:51:32.363Z,18
2023-05-21T21:53:40.066Z,18
2023-05-21T21:55:47.870Z,18
2023-05-21T21:57:55.431Z,18
2023-05-21T22:00:05.123Z,17.9
2023-05-21T22:02:12.710Z,17.9
2023-05-21T22:04:20.420Z,17.9
2023-05-21T22:06:28.306Z,17.9
2023-05-21T22:09:07.796Z,17.9
2023-05-21T22:11:05.651Z,17.8
2023-05-21T22:13:14.125Z,17.8
2023-05-21T22:15:24.690Z,17.8
2023-05-21T22:17:32.972Z,17.8
2023-05-21T22:19:40.686Z,17.8
2023-05-21T22:21:48.998Z,17.8
2023-05-21T22:23:58.194Z,17.7
2023-05-21T22:26:05.876Z,17.7
2023-05-21T22:28:13.657Z,17.7
2023-05-21T22:31:05.567Z,17.7
2023-05-21T22:32:48.153Z,17.6
2023-05-21T22:34:57.319Z,17.7
2023-05-21T22:37:05.781Z,17.6
2023-05-21T22:39:15.852Z,17.6
2023-05-21T22:41:24.063Z,17.6
2023-05-21T22:43:32.001Z,17.5
2023-05-21T22:45:40.505Z,17.4
2023-05-21T22:47:52.434Z,17.4
2023-05-21T22:50:02.757Z,17.4
2023-05-21T22:52:10.400Z,17.4
2023-05-21T22:54:19.344Z,17.4
2023-05-21T22:56:28.774Z,17.4
2023-05-21T22:58:36.494Z,17.4
2023-05-21T23:00:44.427Z,17.4
2023-05-21T23:02:54.152Z,17.4
2023-05-21T23:05:02.470Z,17.3
2023-05-21T23:07:10.108Z,17.3
2023-05-21T23:09:19.087Z,17.3
2023-05-21T23:11:26.671Z,17.3
2023-05-21T23:13:34.340Z,17.3
2023-05-21T23:15:44.059Z,17.2
2023-05-21T23:17:52.756Z,17.2
2023-05-21T23:20:00.308Z,17.2
2023-05-21T23:22:08.162Z,17.2
2023-05-21T23:24:15.772Z,17.1
2023-05-21T23:26:25.629Z,17.2
2023-05-21T23:28:36.218Z,17.1
2023-05-21T23:30:43.792Z,17.1
2023-05-21T23:32:51.601Z,17.1
2023-05-21T23:34:59.117Z,17.1
2023-05-21T23:37:06.741Z,17
2023-05-21T23:39:14.224Z,17
2023-05-21T23:41:22.645Z,16.9
2023-05-21T23:43:31.479Z,16.9
2023-05-21T23:45:40.755Z,16.9
2023-05-21T23:47:48.859Z,16.9
2023-05-21T23:49:56.437Z,16.8
2023-05-21T23:52:04.222Z,16.8
2023-05-21T23:54:11.716Z,16.8
2023-05-21T23:56:19.221Z,16.7
2023-05-21T23:58:26.889Z,16.7
